< Typhoon 200003 2000 Season Typhoon 200005 >
Typhoon 200004 (KAI-TAK)
General InformationTrack Information on Google MapsDetailed Wind InformationList of All Images || Disaster Info.ResourceGoogle EarthGE AnimationAtom FeedGeoJSON
Detalied Best Track (Time Zone = UTC)
Year Month Day Hour Lat. Long. Pressure (hPa) Wind (kt) Class Image Chart
2000 7 3 12 15.9 119.1 1000 0 2 Image Chart
2000 7 3 18 16.4 119.5 996 0 2 Image Chart
2000 7 4 00 17.0 119.8 996 0 2 Image Chart
2000 7 4 06 17.8 120.1 994 0 2 Image Chart
2000 7 4 12 18.6 120.3 996 0 2 Image Chart
2000 7 4 18 18.9 120.3 994 0 2 Image Chart
2000 7 5 00 19.0 120.2 994 0 2 Image Chart
2000 7 5 06 19.1 120.1 994 0 2 Image Chart
2000 7 5 12 19.2 120.0 994 0 2 Image Chart
2000 7 5 18 19.3 120.0 992 40 3 Image Chart
2000 7 6 00 19.4 119.8 985 50 4 Image Chart
2000 7 6 06 19.5 119.6 975 60 4 Image Chart
2000 7 6 12 19.6 119.0 970 65 5 Image Chart
2000 7 6 18 19.6 118.6 965 70 5 Image Chart
2000 7 7 00 19.6 118.6 960 75 5 Image Chart
2000 7 7 06 19.7 118.7 960 75 5 Image Chart
2000 7 7 12 19.8 118.8 960 75 5 Image Chart
2000 7 7 18 19.9 119.0 960 75 5 Image Chart
2000 7 8 00 20.0 119.2 965 70 5 Image Chart
2000 7 8 06 20.3 119.6 970 65 5 Image Chart
2000 7 8 12 20.8 120.2 980 55 4 Image Chart
2000 7 8 18 21.5 120.8 980 55 4 Image Chart
2000 7 9 00 22.7 121.2 985 50 4 Image Chart
2000 7 9 03 23.6 121.3 985 50 4 Image Chart
2000 7 9 06 24.4 121.4 985 50 4 Image Chart
2000 7 9 09 25.4 121.3 990 45 3 Image Chart
2000 7 9 12 26.3 121.2 990 45 3 Image Chart
2000 7 9 18 28.0 121.5 990 40 3 Image Chart
2000 7 10 00 30.3 121.6 992 40 3 Image Chart
2000 7 10 06 32.2 122.1 994 35 3 Image Chart
2000 7 10 12 34.3 122.6 994 35 3 Image Chart
2000 7 10 18 36.9 122.9 994 0 6 Image Chart
2000 7 11 00 38.4 123.2 994 0 6 Image Chart
2000 7 11 06 40.0 123.9 996 0 6 Image Chart
2000 7 11 12 41.2 125.4 996 0 6 Image Chart
2000 7 11 18 42.0 127.9 996 0 6 Image Chart
2000 7 12 00 42.8 130.9 996 0 6 Image Chart
Japan Meteorological Agency Best Track Data | Correction Date : 2001-12-21
< Typhoon 200003 2000 Season Typhoon 200005 >

Help